Meteo18 Weather Cam more information Meteo18 Weather Cam


Thunder radar more information blitzortung!


Rain radar more information rain snow radar



Select another period ( hide this area )

Units Period Custom range Directly to
Metric English Both
Daily Weekly Monthly Yearly
use both date-selectors for a custom range
previous Day
With this date

WeatherUnderground graphs for this period ( click here )


Daily Summary for Friday 21 September 2018
Time Temp. ( °C ) Dew pt. ( °C ) Wind ( km/h ) from Gust ( km/h ) Pressure ( hPa ) Humid.( % ) Rainrate ( cm )
High18,6 16,7 22,7 SW ( 543/1703 ) 37,0 1019,9 91 2,00
Average16,7 13,0 8,1 SW #46/211 13,9 1015,2 79 2,10
Low13,3 8,5 -   0,0 1013,1 60 -
Daily Tabular details for Friday 21 September 2018
Time Temp. ( °C ) Dew pt. ( °C ) Wind ( km/h ) from Gust ( km/h ) Pressure ( hPa ) Humid.( % ) Rainrate ( cm )
00:03 18,6 13,0   Calm   1014,4 70 -
00:09 18,6 13,0   Calm   1014,4 70 -
00:13 18,6 13,0   Calm   1014,4 70 -
00:19 18,3 12,7   Calm   1014,1 70 -
00:23 18,2 12,9   Calm   1014,1 71 -
00:29 18,2 12,9   Calm   1014,1 71 -
00:33 17,9 12,4   Calm   1014,1 70 -
00:39 17,7 12,4   Calm   1014,1 71 -
00:43 17,6 12,7   Calm   1014,1 73 -
00:49 17,4 12,5   Calm   1013,8 73 -
00:53 17,4 12,9   Calm   1013,8 75 -
00:59 17,4 12,7   Calm   1014,1 74 -
01:03 17,5 13,0   Calm   1013,8 75 -
01:09 17,8 13,3   Calm   1013,8 75 -
01:13 17,9 13,2   Calm   1013,8 74 -
01:19 17,8 13,1   Calm   1013,8 74 -
01:23 17,6 12,7   Calm   1013,4 73 -
01:29 17,4 12,5   Calm   1013,4 73 -
01:33 17,2 12,3   Calm   1013,4 73 -
01:39 16,9 12,0   Calm   1013,4 73 -
01:43 16,7 11,8   Calm   1013,4 73 -
01:49 16,5 11,8   Calm   1013,4 74 -
01:53 16,6 12,1   Calm   1013,4 75 -
01:59 16,7 12,4   Calm 1,6 1013,4 76 -
02:03 16,8 12,3   Calm 3,2 1013,4 75 -
02:09 16,7 12,2 3,2 WNW 3,2 1013,4 75 -
02:13 16,9 12,8 4,7 WNW 6,4 1013,8 77 -
02:19 17,4 13,3 3,2 WSW 4,8 1013,8 77 -
02:23 17,7 13,4 3,2 West 3,2 1013,8 76 -
02:27 17,8 13,5 1,4 WSW 3,2 1013,8 76 -
02:34 18,0 13,7   Calm   1013,8 76 -
02:38 18,1 13,8   Calm   1013,8 76 -
02:44 17,8 13,3   Calm   1013,8 75 -
02:48 17,6 12,9   Calm   1013,8 74 -
02:54 17,2 12,7   Calm   1013,8 75 -
02:58 17,0 12,7   Calm   1013,4 76 -
03:04 16,9 12,8   Calm   1013,8 77 -
03:08 16,8 12,7   Calm   1013,4 77 -
03:14 16,8 12,9   Calm   1013,4 78 -
03:18 16,9 13,0   Calm   1013,4 78 -
03:24 16,9 12,8   Calm   1013,4 77 -
03:28 16,8 12,7   Calm   1013,4 77 -
03:34 16,6 12,7 1,4 SE 1,6 1013,4 78 -
03:38 16,6 12,7 1,4 SSE 1,6 1013,4 78 -
03:44 16,4 12,6   Calm 1,6 1013,4 78 -
03:48 16,4 12,7   Calm 3,2 1013,8 79 -
03:54 16,8 12,9 7,9 West 8,0 1013,4 78 -
03:58 17,3 13,2 3,2 WSW 8,0 1013,4 77 -
04:04 17,9 13,4 4,7 West 8,0 1013,4 75 -
04:08 18,2 13,5 3,2 SW 6,4 1013,4 74 -
04:14 18,3 13,4 1,4 WSW 6,4 1013,4 73 -
04:18 18,4 13,5 6,4 SSW 9,7 1013,4 73 -
04:24 18,1 13,0 4,7 SSW 6,4 1013,4 72 -
04:28 17,8 13,1 6,4 SW 12,9 1013,4 74 -
04:34 17,8 13,3 6,4 SSW 8,0 1013,4 75 -
04:38 17,7 13,2 7,9 WSW 9,7 1013,4 75 -
04:44 17,7 13,4 14,3 SW 17,7 1013,4 76 -
04:48 17,7 13,6 3,2 West 14,5 1013,4 77 -
04:54 17,6 13,5 6,4 SW 8,0 1013,4 77 -
04:58 17,5 13,6 4,7 West 9,7 1013,4 78 -
05:04 17,6 13,7 9,7 SW 14,5 1013,4 78 -
05:08 17,6 13,7 7,9 SSW 11,3 1013,4 78 -
05:14 17,6 13,7 14,3 SW 16,1 1013,4 78 -
05:18 17,6 13,7 4,7 SSW 12,9 1013,4 78 -
05:24 17,5 13,6 6,4 SW 19,3 1013,4 78 -
05:28 17,4 13,5 11,1 SW 16,1 1013,1 78 -
05:34 17,2 13,5 4,7 WSW 11,3 1013,1 79 -
05:38 17,1 13,4 4,7 SW 11,3 1013,1 79 -
05:44 17,0 13,5 4,7 WSW 11,3 1013,1 80 -
05:48 16,9 13,6 6,4 SW 17,7 1013,1 81 -
05:54 16,8 13,5 7,9 SW 16,1 1013,1 81 -
05:58 16,8 13,5 4,7 WSW 14,5 1013,4 81 -
06:04 16,8 13,5 11,1 SW 14,5 1013,1 81 -
06:08 16,8 13,5 7,9 SSW 14,5 1013,1 81 -
06:14 16,8 13,5 9,7 SW 12,9 1013,1 81 -
06:18 16,7 13,4 13,0 WSW 12,9 1013,1 81 -
06:24 16,7 13,6 9,7 SSW 20,9 1013,1 82 -
06:28 16,8 13,7 7,9 WSW 16,1 1013,4 82 -
06:34 16,8 13,7 7,9 WSW 14,5 1013,4 82 -
06:38 16,8 13,7 13,0 SW 16,1 1013,4 82 -
06:44 16,9 13,8 4,7 WNW 12,9 1013,4 82 -
06:48 16,9 13,8 7,9 SW 14,5 1013,4 82 -
06:54 17,0 13,9 6,4 WSW 17,7 1013,4 82 -
06:58 17,1 14,0 11,1 SW 17,7 1013,4 82 -
07:04 17,0 13,9 16,3 WSW 16,1 1013,4 82 -
07:08 17,0 13,9 6,4 SSW 12,9 1013,8 82 -
07:14 17,0 13,9 16,3 SSW 16,1 1013,4 82 -
07:18 17,1 14,0 9,7 SW 16,1 1013,4 82 -
07:24 17,0 13,9 9,7 SW 16,1 1013,8 82 -
07:28 17,0 13,9 6,4 SW 11,3 1013,8 82 -
07:34 17,0 14,1 16,3 SW 20,9 1014,1 83 -
07:38 17,0 14,1 7,9 SW 17,7 1013,8 83 -
07:44 17,0 14,1 9,7 SW 12,9 1013,8 83 -
07:48 16,9 14,0 9,7 SSW 14,5 1013,8 83 -
07:54 16,9 14,0 4,7 SW 14,5 1013,8 83 -
07:58 16,9 14,0 7,9 SW 17,7 1013,8 83 -
08:04 16,9 14,0 6,4 SW 14,5 1013,8 83 -
08:08 16,9 14,0 9,7 WSW 16,1 1013,8 83 -
08:14 16,9 14,2 11,1 SW 17,7 1013,8 84 -
08:18 16,9 14,2 16,3 SW 19,3 1013,4 84 -
08:24 16,9 14,2 9,7 SSW 17,7 1013,4 84 -
08:28 16,9 14,2 14,3 SSW 20,9 1013,4 84 -
08:34 17,1 14,4 11,1 WSW 19,3 1013,8 84 -
08:38 17,1 14,6 20,9 SW 22,5 1013,8 85 -
08:44 17,2 14,7 16,3 SW 20,9 1013,8 85 -
08:48 17,2 14,7 11,1 SW 25,7 1014,1 85 -
08:54 17,2 14,7 16,3 WSW 20,9 1013,8 85 -
08:58 17,3 14,8 17,7 SSW 20,9 1013,8 85 -
09:04 17,4 14,9 7,9 South 19,3 1013,8 85 -
09:08 17,4 14,9 19,5 SW 30,6 1014,1 85 -
09:14 17,4 14,9 19,5 SW 22,5 1014,1 85 -
09:18 17,4 14,9 16,3 SW 24,1 1014,1 85 -
09:24 17,5 15,1 17,7 SSW 24,1 1013,8 86 -
09:28 17,5 15,1 16,3 SW 22,5 1014,1 86 -
09:34 17,6 15,0 16,3 South 29,0 1013,8 85 -
09:38 17,6 15,0 16,3 SW 20,9 1013,8 85 -
09:44 17,7 15,1 19,5 SSW 25,7 1014,1 85 -
09:48 17,8 15,2 13,0 SSW 20,9 1014,1 85 -
09:54 17,9 15,3 17,7 SW 24,1 1013,8 85 -
09:58 18,0 15,4 14,3 SW 24,1 1014,4 85 -
10:04 18,1 15,4 14,3 SW 24,1 1014,4 84 -
10:08 18,2 15,5 11,1 SW 20,9 1014,4 84 -
10:14 18,3 15,5 14,3 SSW 22,5 1014,4 84 -
10:18 18,3 15,5 13,0 SW 22,5 1014,4 84 -
10:24 18,4 15,5 7,9 SSW 20,9 1014,4 83 -
10:28 18,6 15,7 17,7 SSW 33,8 1014,4 83 -
10:34 18,4 15,6 14,3 SW 30,6 1014,4 84 0,50
10:38 18,3 15,9 22,7 WSW 22,5 1014,4 86 0,80
10:44 18,1 15,9 19,5 South 24,1 1014,4 87 0,80
10:48 18,0 16,0 9,7 WSW 20,9 1014,4 88 0,80
10:54 17,9 16,1 17,7 SW 19,3 1014,4 89 1,00
10:58 17,9 16,1 13,0 SW 22,5 1014,4 89 1,00
11:04 17,9 16,1 16,3 WSW 25,7 1014,4 89 1,00
11:08 17,9 16,1 7,9 West 19,3 1014,4 89 1,00
11:12 18,0 16,2 7,9 WSW 20,9 1014,4 89 1,00
11:19 18,1 16,3 6,4 WSW 24,1 1014,8 89 1,00
11:23 18,2 16,4 9,7 WSW 24,1 1014,8 89 1,00
11:29 18,3 16,5 14,3 SW 16,1 1014,4 89 1,00
11:33 18,3 16,5 16,3 SW 19,3 1014,4 89 0,80
11:39 18,5 16,7 4,7 WSW 17,7 1014,8 89 0,30
11:43 18,1 16,1 13,0 NW 37,0 1015,1 88 0,30
11:49 16,7 14,5 11,1 WNW 16,1 1015,5 87 -
11:53 16,2 14,2 9,7 WNW 20,9 1015,5 88 -
11:59 15,4 13,4 17,7 WNW 30,6 1016,1 88 0,50
12:03 15,1 13,3 14,3 West 29,0 1016,1 89 0,80
12:09 14,6 13,0 11,1 North 22,5 1016,1 90 1,30
12:13 14,3 12,9 19,5 NW 19,3 1016,5 91 1,50
12:19 13,9 12,5 6,4 WNW 17,7 1016,5 91 1,50
12:23 13,6 12,2 4,7 WNW 17,7 1016,5 91 1,50
12:29 13,4 12,0 3,2 NW 12,9 1016,8 91 1,50
12:33 13,4 12,0 7,9 NW 16,1 1016,8 91 1,50
12:39 13,3 11,9 13,0 WNW 20,9 1016,5 91 1,80
12:43 13,3 11,9 3,2 NW 6,4 1016,5 91 2,00
12:49 13,3 11,9 4,7 WNW 12,9 1016,5 91 2,00
12:53 13,4 12,0 6,4 WNW 11,3 1016,8 91 1,80
12:59 13,6 12,2 3,2 WNW 8,0 1016,8 91 1,50
13:03 13,7 12,1 9,7 WNW 16,1 1017,2 90 1,30
13:09 13,7 11,9 9,7 WNW 14,5 1017,2 89 0,80
13:13 13,7 11,9 16,3 WNW 19,3 1017,2 89 0,50
13:19 13,9 12,1 6,4 NNW 14,5 1017,5 89 0,50
13:23 13,9 11,9 3,2 WNW 12,9 1017,5 88 0,50
13:29 14,1 12,0 3,2 NW 19,3 1017,5 87 0,50
13:33 14,2 12,1 11,1 WNW 12,9 1017,5 87 0,30
13:39 14,4 12,4 4,7 WSW 6,4 1017,5 88 -
13:43 14,5 12,4 1,4 NW 9,7 1017,5 87 -
13:49 14,7 12,4 9,7 West 12,9 1017,5 86 -
13:53 14,7 12,0 9,7 WNW 16,1 1017,8 84 -
13:59 14,8 12,1 1,4 WNW 16,1 1017,8 84 -
14:03 14,9 11,9 13,0 WNW 17,7 1017,8 82 -
14:09 14,9 11,5 7,9 WNW 20,9 1017,8 80 -
14:13 15,1 11,9 6,4 West 16,1 1017,8 81 -
14:19 15,2 11,6 13,0 WNW 16,1 1017,8 79 -
14:23 15,3 11,7 9,7 NW 16,1 1018,2 79 -
14:29 15,5 11,7 9,7 WNW 20,9 1018,2 78 -
14:33 15,5 11,5 7,9 WNW 17,7 1018,2 77 -
14:39 15,7 11,9 6,4 WNW 14,5 1018,2 78 -
14:43 15,7 11,9 4,7 NW 12,9 1018,2 78 -
14:49 15,6 11,4 7,9 WNW 20,9 1018,2 76 -
14:53 15,5 11,3 16,3 NW 24,1 1018,2 76 -
14:59 15,6 11,2 11,1 WNW 14,5 1018,2 75 -
15:03 15,7 11,1 9,7 WNW 17,7 1017,8 74 -
15:09 15,7 10,9 4,7 West 14,5 1017,8 73 -
15:13 15,8 11,0 11,1 SW 12,9 1017,8 73 -
15:19 16,0 11,2 13,0 WSW 16,1 1018,5 73 -
15:23 16,1 11,1 9,7 WNW 19,3 1018,5 72 -
15:29 16,1 11,1 7,9 West 20,9 1018,8 72 -
15:33 16,1 11,3 13,0 WNW 14,5 1018,8 73 -
15:39 16,3 11,2 9,7 WSW 17,7 1018,8 72 -
15:43 16,3 11,5 9,7 NW 14,5 1018,8 73 -
15:49 16,2 10,7 17,7 WNW 19,3 1018,8 70 -
15:53 16,2 10,7 7,9 NW 14,5 1018,8 70 -
15:59 16,2 9,6 13,0 NW 22,5 1018,8 65 -
16:03 16,3 9,7 14,3 WNW 19,3 1018,8 65 -
16:09 16,3 9,7 17,7 WNW 20,9 1019,2 65 -
16:13 16,3 9,5 13,0 West 19,3 1019,2 64 -
16:19 16,4 9,8 6,4 WNW 9,7 1019,2 65 -
16:23 16,6 9,3 11,1 WNW 24,1 1019,2 62 -
16:29 16,4 8,9 14,3 NW 29,0 1019,2 61 -
16:33 16,3 8,8 7,9 NW 22,5 1019,5 61 -
16:39 16,4 9,3 9,7 WNW 16,1 1019,5 63 -
16:43 16,4 9,1 11,1 West 17,7 1019,5 62 -
16:49 16,3 9,2 4,7 WNW 14,5 1019,5 63 -
16:53 16,3 9,0 6,4 WSW 17,7 1019,5 62 -
16:59 16,3 9,0 22,7 WNW 25,7 1019,5 62 -
17:03 16,3 8,5 20,9 NNW 24,1 1019,9 60 -
17:09 16,3 9,0 6,4 West 17,7 1019,9 62 -
17:13 16,3 8,8 4,7 West 14,5 1019,9 61 -
17:19 16,3 9,0 4,7 West 12,9 1019,9 62 -
17:23 16,3 8,8 6,4 WNW 17,7 1019,9 61 -
17:29 16,2 8,9 7,9 WNW 14,5 1019,9 62 -
17:33 16,2 8,9 4,7 West 14,5 1019,9 62 -
Daily Summary for Friday 21 September 2018
Time Temp. ( °C ) Dew pt. ( °C ) Wind ( km/h ) from Gust ( km/h ) Pressure ( hPa ) Humid.( % ) Rainrate ( cm )
High18,6 16,7 22,7 SW ( 543/1703 ) 37,0 1019,9 91 2,00
Average16,7 13,0 8,1 SW #46/211 13,9 1015,2 79 2,10
Low13,3 8,5 -   0,0 1013,1 60 -
Daily Tabular details for Friday 21 September 2018
Time Temp. ( °C ) Dew pt. ( °C ) Wind ( km/h ) from Gust ( km/h ) Pressure ( hPa ) Humid.( % ) Rainrate ( cm )
00:03 18,6 13,0   Calm   1014,4 70 -
00:09 18,6 13,0   Calm   1014,4 70 -
00:13 18,6 13,0   Calm   1014,4 70 -
00:19 18,3 12,7   Calm   1014,1 70 -
00:23 18,2 12,9   Calm   1014,1 71 -
00:29 18,2 12,9   Calm   1014,1 71 -
00:33 17,9 12,4   Calm   1014,1 70 -
00:39 17,7 12,4   Calm   1014,1 71 -
00:43 17,6 12,7   Calm   1014,1 73 -
00:49 17,4 12,5   Calm   1013,8 73 -
00:53 17,4 12,9   Calm   1013,8 75 -
00:59 17,4 12,7   Calm   1014,1 74 -
01:03 17,5 13,0   Calm   1013,8 75 -
01:09 17,8 13,3   Calm   1013,8 75 -
01:13 17,9 13,2   Calm   1013,8 74 -
01:19 17,8 13,1   Calm   1013,8 74 -
01:23 17,6 12,7   Calm   1013,4 73 -
01:29 17,4 12,5   Calm   1013,4 73 -
01:33 17,2 12,3   Calm   1013,4 73 -
01:39 16,9 12,0   Calm   1013,4 73 -
01:43 16,7 11,8   Calm   1013,4 73 -
01:49 16,5 11,8   Calm   1013,4 74 -
01:53 16,6 12,1   Calm   1013,4 75 -
01:59 16,7 12,4   Calm 1,6 1013,4 76 -
02:03 16,8 12,3   Calm 3,2 1013,4 75 -
02:09 16,7 12,2 3,2 WNW 3,2 1013,4 75 -
02:13 16,9 12,8 4,7 WNW 6,4 1013,8 77 -
02:19 17,4 13,3 3,2 WSW 4,8 1013,8 77 -
02:23 17,7 13,4 3,2 West 3,2 1013,8 76 -
02:27 17,8 13,5 1,4 WSW 3,2 1013,8 76 -
02:34 18,0 13,7   Calm   1013,8 76 -
02:38 18,1 13,8   Calm   1013,8 76 -
02:44 17,8 13,3   Calm   1013,8 75 -
02:48 17,6 12,9   Calm   1013,8 74 -
02:54 17,2 12,7   Calm   1013,8 75 -
02:58 17,0 12,7   Calm   1013,4 76 -
03:04 16,9 12,8   Calm   1013,8 77 -
03:08 16,8 12,7   Calm   1013,4 77 -
03:14 16,8 12,9   Calm   1013,4 78 -
03:18 16,9 13,0   Calm   1013,4 78 -
03:24 16,9 12,8   Calm   1013,4 77 -
03:28 16,8 12,7   Calm   1013,4 77 -
03:34 16,6 12,7 1,4 SE 1,6 1013,4 78 -
03:38 16,6 12,7 1,4 SSE 1,6 1013,4 78 -
03:44 16,4 12,6   Calm 1,6 1013,4 78 -
03:48 16,4 12,7   Calm 3,2 1013,8 79 -
03:54 16,8 12,9 7,9 West 8,0 1013,4 78 -
03:58 17,3 13,2 3,2 WSW 8,0 1013,4 77 -
04:04 17,9 13,4 4,7 West 8,0 1013,4 75 -
04:08 18,2 13,5 3,2 SW 6,4 1013,4 74 -
04:14 18,3 13,4 1,4 WSW 6,4 1013,4 73 -
04:18 18,4 13,5 6,4 SSW 9,7 1013,4 73 -
04:24 18,1 13,0 4,7 SSW 6,4 1013,4 72 -
04:28 17,8 13,1 6,4 SW 12,9 1013,4 74 -
04:34 17,8 13,3 6,4 SSW 8,0 1013,4 75 -
04:38 17,7 13,2 7,9 WSW 9,7 1013,4 75 -
04:44 17,7 13,4 14,3 SW 17,7 1013,4 76 -
04:48 17,7 13,6 3,2 West 14,5 1013,4 77 -
04:54 17,6 13,5 6,4 SW 8,0 1013,4 77 -
04:58 17,5 13,6 4,7 West 9,7 1013,4 78 -
05:04 17,6 13,7 9,7 SW 14,5 1013,4 78 -
05:08 17,6 13,7 7,9 SSW 11,3 1013,4 78 -
05:14 17,6 13,7 14,3 SW 16,1 1013,4 78 -
05:18 17,6 13,7 4,7 SSW 12,9 1013,4 78 -
05:24 17,5 13,6 6,4 SW 19,3 1013,4 78 -
05:28 17,4 13,5 11,1 SW 16,1 1013,1 78 -
05:34 17,2 13,5 4,7 WSW 11,3 1013,1 79 -
05:38 17,1 13,4 4,7 SW 11,3 1013,1 79 -
05:44 17,0 13,5 4,7 WSW 11,3 1013,1 80 -
05:48 16,9 13,6 6,4 SW 17,7 1013,1 81 -
05:54 16,8 13,5 7,9 SW 16,1 1013,1 81 -
05:58 16,8 13,5 4,7 WSW 14,5 1013,4 81 -
06:04 16,8 13,5 11,1 SW 14,5 1013,1 81 -
06:08 16,8 13,5 7,9 SSW 14,5 1013,1 81 -
06:14 16,8 13,5 9,7 SW 12,9 1013,1 81 -
06:18 16,7 13,4 13,0 WSW 12,9 1013,1 81 -
06:24 16,7 13,6 9,7 SSW 20,9 1013,1 82 -
06:28 16,8 13,7 7,9 WSW 16,1 1013,4 82 -
06:34 16,8 13,7 7,9 WSW 14,5 1013,4 82 -
06:38 16,8 13,7 13,0 SW 16,1 1013,4 82 -
06:44 16,9 13,8 4,7 WNW 12,9 1013,4 82 -
06:48 16,9 13,8 7,9 SW 14,5 1013,4 82 -
06:54 17,0 13,9 6,4 WSW 17,7 1013,4 82 -
06:58 17,1 14,0 11,1 SW 17,7 1013,4 82 -
07:04 17,0 13,9 16,3 WSW 16,1 1013,4 82 -
07:08 17,0 13,9 6,4 SSW 12,9 1013,8 82 -
07:14 17,0 13,9 16,3 SSW 16,1 1013,4 82 -
07:18 17,1 14,0 9,7 SW 16,1 1013,4 82 -
07:24 17,0 13,9 9,7 SW 16,1 1013,8 82 -
07:28 17,0 13,9 6,4 SW 11,3 1013,8 82 -
07:34 17,0 14,1 16,3 SW 20,9 1014,1 83 -
07:38 17,0 14,1 7,9 SW 17,7 1013,8 83 -
07:44 17,0 14,1 9,7 SW 12,9 1013,8 83 -
07:48 16,9 14,0 9,7 SSW 14,5 1013,8 83 -
07:54 16,9 14,0 4,7 SW 14,5 1013,8 83 -
07:58 16,9 14,0 7,9 SW 17,7 1013,8 83 -
08:04 16,9 14,0 6,4 SW 14,5 1013,8 83 -
08:08 16,9 14,0 9,7 WSW 16,1 1013,8 83 -
08:14 16,9 14,2 11,1 SW 17,7 1013,8 84 -
08:18 16,9 14,2 16,3 SW 19,3 1013,4 84 -
08:24 16,9 14,2 9,7 SSW 17,7 1013,4 84 -
08:28 16,9 14,2 14,3 SSW 20,9 1013,4 84 -
08:34 17,1 14,4 11,1 WSW 19,3 1013,8 84 -
08:38 17,1 14,6 20,9 SW 22,5 1013,8 85 -
08:44 17,2 14,7 16,3 SW 20,9 1013,8 85 -
08:48 17,2 14,7 11,1 SW 25,7 1014,1 85 -
08:54 17,2 14,7 16,3 WSW 20,9 1013,8 85 -
08:58 17,3 14,8 17,7 SSW 20,9 1013,8 85 -
09:04 17,4 14,9 7,9 South 19,3 1013,8 85 -
09:08 17,4 14,9 19,5 SW 30,6 1014,1 85 -
09:14 17,4 14,9 19,5 SW 22,5 1014,1 85 -
09:18 17,4 14,9 16,3 SW 24,1 1014,1 85 -
09:24 17,5 15,1 17,7 SSW 24,1 1013,8 86 -
09:28 17,5 15,1 16,3 SW 22,5 1014,1 86 -
09:34 17,6 15,0 16,3 South 29,0 1013,8 85 -
09:38 17,6 15,0 16,3 SW 20,9 1013,8 85 -
09:44 17,7 15,1 19,5 SSW 25,7 1014,1 85 -
09:48 17,8 15,2 13,0 SSW 20,9 1014,1 85 -
09:54 17,9 15,3 17,7 SW 24,1 1013,8 85 -
09:58 18,0 15,4 14,3 SW 24,1 1014,4 85 -
10:04 18,1 15,4 14,3 SW 24,1 1014,4 84 -
10:08 18,2 15,5 11,1 SW 20,9 1014,4 84 -
10:14 18,3 15,5 14,3 SSW 22,5 1014,4 84 -
10:18 18,3 15,5 13,0 SW 22,5 1014,4 84 -
10:24 18,4 15,5 7,9 SSW 20,9 1014,4 83 -
10:28 18,6 15,7 17,7 SSW 33,8 1014,4 83 -
10:34 18,4 15,6 14,3 SW 30,6 1014,4 84 0,50
10:38 18,3 15,9 22,7 WSW 22,5 1014,4 86 0,80
10:44 18,1 15,9 19,5 South 24,1 1014,4 87 0,80
10:48 18,0 16,0 9,7 WSW 20,9 1014,4 88 0,80
10:54 17,9 16,1 17,7 SW 19,3 1014,4 89 1,00
10:58 17,9 16,1 13,0 SW 22,5 1014,4 89 1,00
11:04 17,9 16,1 16,3 WSW 25,7 1014,4 89 1,00
11:08 17,9 16,1 7,9 West 19,3 1014,4 89 1,00
11:12 18,0 16,2 7,9 WSW 20,9 1014,4 89 1,00
11:19 18,1 16,3 6,4 WSW 24,1 1014,8 89 1,00
11:23 18,2 16,4 9,7 WSW 24,1 1014,8 89 1,00
11:29 18,3 16,5 14,3 SW 16,1 1014,4 89 1,00
11:33 18,3 16,5 16,3 SW 19,3 1014,4 89 0,80
11:39 18,5 16,7 4,7 WSW 17,7 1014,8 89 0,30
11:43 18,1 16,1 13,0 NW 37,0 1015,1 88 0,30
11:49 16,7 14,5 11,1 WNW 16,1 1015,5 87 -
11:53 16,2 14,2 9,7 WNW 20,9 1015,5 88 -
11:59 15,4 13,4 17,7 WNW 30,6 1016,1 88 0,50
12:03 15,1 13,3 14,3 West 29,0 1016,1 89 0,80
12:09 14,6 13,0 11,1 North 22,5 1016,1 90 1,30
12:13 14,3 12,9 19,5 NW 19,3 1016,5 91 1,50
12:19 13,9 12,5 6,4 WNW 17,7 1016,5 91 1,50
12:23 13,6 12,2 4,7 WNW 17,7 1016,5 91 1,50
12:29 13,4 12,0 3,2 NW 12,9 1016,8 91 1,50
12:33 13,4 12,0 7,9 NW 16,1 1016,8 91 1,50
12:39 13,3 11,9 13,0 WNW 20,9 1016,5 91 1,80
12:43 13,3 11,9 3,2 NW 6,4 1016,5 91 2,00
12:49 13,3 11,9 4,7 WNW 12,9 1016,5 91 2,00
12:53 13,4 12,0 6,4 WNW 11,3 1016,8 91 1,80
12:59 13,6 12,2 3,2 WNW 8,0 1016,8 91 1,50
13:03 13,7 12,1 9,7 WNW 16,1 1017,2 90 1,30
13:09 13,7 11,9 9,7 WNW 14,5 1017,2 89 0,80
13:13 13,7 11,9 16,3 WNW 19,3 1017,2 89 0,50
13:19 13,9 12,1 6,4 NNW 14,5 1017,5 89 0,50
13:23 13,9 11,9 3,2 WNW 12,9 1017,5 88 0,50
13:29 14,1 12,0 3,2 NW 19,3 1017,5 87 0,50
13:33 14,2 12,1 11,1 WNW 12,9 1017,5 87 0,30
13:39 14,4 12,4 4,7 WSW 6,4 1017,5 88 -
13:43 14,5 12,4 1,4 NW 9,7 1017,5 87 -
13:49 14,7 12,4 9,7 West 12,9 1017,5 86 -
13:53 14,7 12,0 9,7 WNW 16,1 1017,8 84 -
13:59 14,8 12,1 1,4 WNW 16,1 1017,8 84 -
14:03 14,9 11,9 13,0 WNW 17,7 1017,8 82 -
14:09 14,9 11,5 7,9 WNW 20,9 1017,8 80 -
14:13 15,1 11,9 6,4 West 16,1 1017,8 81 -
14:19 15,2 11,6 13,0 WNW 16,1 1017,8 79 -
14:23 15,3 11,7 9,7 NW 16,1 1018,2 79 -
14:29 15,5 11,7 9,7 WNW 20,9 1018,2 78 -
14:33 15,5 11,5 7,9 WNW 17,7 1018,2 77 -
14:39 15,7 11,9 6,4 WNW 14,5 1018,2 78 -
14:43 15,7 11,9 4,7 NW 12,9 1018,2 78 -
14:49 15,6 11,4 7,9 WNW 20,9 1018,2 76 -
14:53 15,5 11,3 16,3 NW 24,1 1018,2 76 -
14:59 15,6 11,2 11,1 WNW 14,5 1018,2 75 -
15:03 15,7 11,1 9,7 WNW 17,7 1017,8 74 -
15:09 15,7 10,9 4,7 West 14,5 1017,8 73 -
15:13 15,8 11,0 11,1 SW 12,9 1017,8 73 -
15:19 16,0 11,2 13,0 WSW 16,1 1018,5 73 -
15:23 16,1 11,1 9,7 WNW 19,3 1018,5 72 -
15:29 16,1 11,1 7,9 West 20,9 1018,8 72 -
15:33 16,1 11,3 13,0 WNW 14,5 1018,8 73 -
15:39 16,3 11,2 9,7 WSW 17,7 1018,8 72 -
15:43 16,3 11,5 9,7 NW 14,5 1018,8 73 -
15:49 16,2 10,7 17,7 WNW 19,3 1018,8 70 -
15:53 16,2 10,7 7,9 NW 14,5 1018,8 70 -
15:59 16,2 9,6 13,0 NW 22,5 1018,8 65 -
16:03 16,3 9,7 14,3 WNW 19,3 1018,8 65 -
16:09 16,3 9,7 17,7 WNW 20,9 1019,2 65 -
16:13 16,3 9,5 13,0 West 19,3 1019,2 64 -
16:19 16,4 9,8 6,4 WNW 9,7 1019,2 65 -
16:23 16,6 9,3 11,1 WNW 24,1 1019,2 62 -
16:29 16,4 8,9 14,3 NW 29,0 1019,2 61 -
16:33 16,3 8,8 7,9 NW 22,5 1019,5 61 -
16:39 16,4 9,3 9,7 WNW 16,1 1019,5 63 -
16:43 16,4 9,1 11,1 West 17,7 1019,5 62 -
16:49 16,3 9,2 4,7 WNW 14,5 1019,5 63 -
16:53 16,3 9,0 6,4 WSW 17,7 1019,5 62 -
16:59 16,3 9,0 22,7 WNW 25,7 1019,5 62 -
17:03 16,3 8,5 20,9 NNW 24,1 1019,9 60 -
17:09 16,3 9,0 6,4 West 17,7 1019,9 62 -
17:13 16,3 8,8 4,7 West 14,5 1019,9 61 -
17:19 16,3 9,0 4,7 West 12,9 1019,9 62 -
17:23 16,3 8,8 6,4 WNW 17,7 1019,9 61 -
17:29 16,2 8,9 7,9 WNW 14,5 1019,9 62 -
17:33 16,2 8,9 4,7 West 14,5 1019,9 62 -

Download your copy of this data-set  here

Our weather-data as stored at Weather Underground. Script developed by Jim McMurry. Adapted for the template by Leuven-Template.eu

You find our weather info also at:

Weather Underground

Equipment we use:

Weather-station
Davis Vue

Weather-program
Meteobridge

Weather-server
Raspberry PI 2 B+

Provider
1 and 1

Davis Vue

Meteobridge

Raspberry PI 2 B+

1 and 1